sensor_id;sensor_type;location;lat;lon;timestamp;pressure;altitude;pressure_sealevel;temperature;humidity
12775;BME280;6451;42.630;23.382;2023-05-08T00:02:03;94534.94;;;18.35;73.06
12775;BME280;6451;42.630;23.382;2023-05-08T00:04:30;94542.44;;;18.77;72.08
12775;BME280;6451;42.630;23.382;2023-05-08T00:06:58;94548.34;;;18.83;72.52
12775;BME280;6451;42.630;23.382;2023-05-08T00:09:25;94531.03;;;18.54;72.80
12775;BME280;6451;42.630;23.382;2023-05-08T00:11:52;94543.94;;;18.32;73.42
12775;BME280;6451;42.630;23.382;2023-05-08T00:14:18;94530.59;;;18.16;73.62
12775;BME280;6451;42.630;23.382;2023-05-08T00:16:45;94543.22;;;18.56;72.89
12775;BME280;6451;42.630;23.382;2023-05-08T00:19:12;94548.72;;;18.64;72.15
12775;BME280;6451;42.630;23.382;2023-05-08T00:21:39;94534.19;;;18.49;72.13
12775;BME280;6451;42.630;23.382;2023-05-08T00:24:08;94559.34;;;18.69;72.24
12775;BME280;6451;42.630;23.382;2023-05-08T00:26:34;94557.38;;;18.73;71.71
12775;BME280;6451;42.630;23.382;2023-05-08T00:29:01;94555.41;;;18.80;71.30
12775;BME280;6451;42.630;23.382;2023-05-08T00:31:28;94559.34;;;18.69;71.55
12775;BME280;6451;42.630;23.382;2023-05-08T00:33:55;94499.22;;;18.24;71.34
12775;BME280;6451;42.630;23.382;2023-05-08T00:36:23;94520.41;;;18.31;72.22
12775;BME280;6451;42.630;23.382;2023-05-08T00:38:50;94560.50;;;18.64;71.93
12775;BME280;6451;42.630;23.382;2023-05-08T00:41:18;94563.25;;;18.75;72.28
12775;BME280;6451;42.630;23.382;2023-05-08T00:43:46;94558.09;;;18.55;72.56
12775;BME280;6451;42.630;23.382;2023-05-08T00:46:13;94542.03;;;18.50;73.27
12775;BME280;6451;42.630;23.382;2023-05-08T00:48:42;94562.88;;;18.69;73.48
12775;BME280;6451;42.630;23.382;2023-05-08T00:51:10;94532.63;;;18.66;72.77
12775;BME280;6451;42.630;23.382;2023-05-08T00:53:39;94560.50;;;18.68;73.33
12775;BME280;6451;42.630;23.382;2023-05-08T00:56:09;94555.03;;;18.71;72.88
12775;BME280;6451;42.630;23.382;2023-05-08T00:58:38;94552.66;;;18.80;72.66
12775;BME280;6451;42.630;23.382;2023-05-08T01:01:06;94562.47;;;18.81;72.23
12775;BME280;6451;42.630;23.382;2023-05-08T01:03:34;94552.66;;;18.66;72.42
12775;BME280;6451;42.630;23.382;2023-05-08T01:06:02;94564.44;;;18.77;72.16
12775;BME280;6451;42.630;23.382;2023-05-08T01:08:30;94547.53;;;18.43;74.03
12775;BME280;6451;42.630;23.382;2023-05-08T01:11:02;94551.44;;;18.53;74.29
12775;BME280;6451;42.630;23.382;2023-05-08T01:13:45;94568.34;;;18.51;75.33
12775;BME280;6451;42.630;23.382;2023-05-08T01:16:22;94522.38;;;18.23;74.51
12775;BME280;6451;42.630;23.382;2023-05-08T01:18:58;94569.47;;;18.40;74.54
12775;BME280;6451;42.630;23.382;2023-05-08T01:21:32;94573.78;;;18.19;76.49
12775;BME280;6451;42.630;23.382;2023-05-08T01:24:35;94571.78;;;18.05;75.83
12775;BME280;6451;42.630;23.382;2023-05-08T01:27:31;94572.94;;;18.08;76.45
12775;BME280;6451;42.630;23.382;2023-05-08T01:33:11;94565.91;;;18.21;76.86
12775;BME280;6451;42.630;23.382;2023-05-08T01:35:55;94556.09;;;18.17;76.27
12775;BME280;6451;42.630;23.382;2023-05-08T01:38:32;94530.56;;;17.95;76.29
12775;BME280;6451;42.630;23.382;2023-05-08T01:41:07;94547.84;;;18.06;76.94
12775;BME280;6451;42.630;23.382;2023-05-08T01:43:50;94541.91;;;17.93;78.16
12775;BME280;6451;42.630;23.382;2023-05-08T01:46:23;94500.59;;;17.54;79.78
12775;BME280;6451;42.630;23.382;2023-05-08T01:48:55;94557.25;;;18.05;78.03
12775;BME280;6451;42.630;23.382;2023-05-08T01:51:26;94531.19;;;17.63;80.12
12775;BME280;6451;42.630;23.382;2023-05-08T01:53:57;94522.19;;;17.66;80.29
12775;BME280;6451;42.630;23.382;2023-05-08T01:56:28;94531.69;;;17.80;80.67
12775;BME280;6451;42.630;23.382;2023-05-08T01:58:58;94534.03;;;17.77;81.85
12775;BME280;6451;42.630;23.382;2023-05-08T02:01:26;94546.59;;;17.86;83.47
12775;BME280;6451;42.630;23.382;2023-05-08T02:03:56;94550.16;;;17.93;83.11
12775;BME280;6451;42.630;23.382;2023-05-08T02:06:25;94521.41;;;17.69;83.79
12775;BME280;6451;42.630;23.382;2023-05-08T02:08:56;94552.50;;;17.88;85.53
12775;BME280;6451;42.630;23.382;2023-05-08T02:11:24;94555.63;;;17.93;85.59
12775;BME280;6451;42.630;23.382;2023-05-08T02:13:57;94552.94;;;18.08;84.65
12775;BME280;6451;42.630;23.382;2023-05-08T02:16:29;94481.78;;;17.63;84.02
12775;BME280;6451;42.630;23.382;2023-05-08T02:18:59;94548.63;;;18.03;85.20
12775;BME280;6451;42.630;23.382;2023-05-08T02:21:28;94552.56;;;18.05;85.45
12775;BME280;6451;42.630;23.382;2023-05-08T02:23:56;94559.19;;;17.97;85.77
12775;BME280;6451;42.630;23.382;2023-05-08T02:26:24;94556.06;;;18.06;85.95
12775;BME280;6451;42.630;23.382;2023-05-08T02:28:52;94559.97;;;18.01;86.43
12775;BME280;6451;42.630;23.382;2023-05-08T02:31:20;94556.84;;;17.96;86.69
12775;BME280;6451;42.630;23.382;2023-05-08T02:33:49;94395.69;;;16.81;86.96
12775;BME280;6451;42.630;23.382;2023-05-08T02:36:18;94558.41;;;17.97;87.14
12775;BME280;6451;42.630;23.382;2023-05-08T02:38:47;94560.00;;;18.05;86.61
12775;BME280;6451;42.630;23.382;2023-05-08T02:41:18;94553.66;;;17.80;88.42
12775;BME280;6451;42.630;23.382;2023-05-08T02:43:47;94552.84;;;17.75;90.06
12775;BME280;6451;42.630;23.382;2023-05-08T02:46:17;94558.03;;;17.95;91.66
12775;BME280;6451;42.630;23.382;2023-05-08T02:48:50;94543.06;;;17.85;90.45
12775;BME280;6451;42.630;23.382;2023-05-08T02:51:24;94559.97;;;17.87;92.34
12775;BME280;6451;42.630;23.382;2023-05-08T02:53:57;94556.03;;;17.88;90.47
12775;BME280;6451;42.630;23.382;2023-05-08T02:56:31;94566.28;;;18.02;89.15
12775;BME280;6451;42.630;23.382;2023-05-08T02:59:09;94505.34;;;17.64;89.87
12775;BME280;6451;42.630;23.382;2023-05-08T03:01:45;94560.75;;;17.91;89.22
12775;BME280;6451;42.630;23.382;2023-05-08T03:04:21;94552.09;;;17.93;89.11
12775;BME280;6451;42.630;23.382;2023-05-08T03:06:53;94564.63;;;17.83;90.90
12775;BME280;6451;42.630;23.382;2023-05-08T03:09:26;94556.03;;;17.88;90.26
12775;BME280;6451;42.630;23.382;2023-05-08T03:12:03;94552.84;;;17.75;92.07
12775;BME280;6451;42.630;23.382;2023-05-08T03:14:36;94562.28;;;17.85;92.22
12775;BME280;6451;42.630;23.382;2023-05-08T03:17:06;94556.75;;;17.78;92.13
12775;BME280;6451;42.630;23.382;2023-05-08T03:19:36;94570.97;;;17.98;90.62
12775;BME280;6451;42.630;23.382;2023-05-08T03:22:06;94565.78;;;17.78;91.58
12775;BME280;6451;42.630;23.382;2023-05-08T03:24:35;94571.75;;;17.98;91.42
12775;BME280;6451;42.630;23.382;2023-05-08T03:27:04;94541.03;;;17.68;91.56
12775;BME280;6451;42.630;23.382;2023-05-08T03:29:33;94576.88;;;18.07;89.71
12775;BME280;6451;42.630;23.382;2023-05-08T03:32:02;94557.25;;;18.09;87.66
12775;BME280;6451;42.630;23.382;2023-05-08T03:34:30;94578.84;;;18.06;88.15
12775;BME280;6451;42.630;23.382;2023-05-08T03:36:58;94582.81;;;18.30;87.34
12775;BME280;6451;42.630;23.382;2023-05-08T03:39:26;94572.56;;;18.13;87.07
12775;BME280;6451;42.630;23.382;2023-05-08T03:41:54;94574.56;;;18.27;86.40
12775;BME280;6451;42.630;23.382;2023-05-08T03:44:22;94571.44;;;18.32;86.00
12775;BME280;6451;42.630;23.382;2023-05-08T03:46:50;94580.44;;;18.32;85.65
12775;BME280;6451;42.630;23.382;2023-05-08T03:49:21;94575.00;;;18.61;87.98
12775;BME280;6451;42.630;23.382;2023-05-08T03:51:49;94576.59;;;18.69;85.56
12775;BME280;6451;42.630;23.382;2023-05-08T03:54:16;94568.75;;;18.64;83.49
12775;BME280;6451;42.630;23.382;2023-05-08T03:56:45;94574.22;;;18.57;84.03
12775;BME280;6451;42.630;23.382;2023-05-08T03:59:15;94574.22;;;18.60;84.49
12775;BME280;6451;42.630;23.382;2023-05-08T04:01:47;94586.81;;;18.65;84.45
12775;BME280;6451;42.630;23.382;2023-05-08T04:04:16;94586.06;;;18.79;84.91
12775;BME280;6451;42.630;23.382;2023-05-08T04:06:48;94591.88;;;18.63;85.92
12775;BME280;6451;42.630;23.382;2023-05-08T04:09:18;94595.88;;;18.83;84.61
12775;BME280;6451;42.630;23.382;2023-05-08T04:11:54;94575.81;;;18.69;84.07
12775;BME280;6451;42.630;23.382;2023-05-08T04:14:25;94594.63;;;18.52;85.72
12775;BME280;6451;42.630;23.382;2023-05-08T04:16:57;94602.44;;;18.40;85.43
12775;BME280;6451;42.630;23.382;2023-05-08T04:19:28;94574.97;;;18.29;85.03
12775;BME280;6451;42.630;23.382;2023-05-08T04:21:58;94602.09;;;18.52;84.53
12775;BME280;6451;42.630;23.382;2023-05-08T04:24:27;94587.13;;;18.21;84.84
12775;BME280;6451;42.630;23.382;2023-05-08T04:26:58;94587.44;;;17.94;86.37
12775;BME280;6451;42.630;23.382;2023-05-08T04:29:27;94594.22;;;18.43;85.04
12775;BME280;6451;42.630;23.382;2023-05-08T04:31:55;94605.31;;;18.79;84.07
12775;BME280;6451;42.630;23.382;2023-05-08T04:34:22;94602.16;;;18.87;84.84
12775;BME280;6451;42.630;23.382;2023-05-08T04:36:50;94515.72;;;18.46;83.87
12775;BME280;6451;42.630;23.382;2023-05-08T04:39:17;94600.94;;;19.24;84.61
12775;BME280;6451;42.630;23.382;2023-05-08T04:41:44;94597.81;;;19.08;85.27
12775;BME280;6451;42.630;23.382;2023-05-08T04:44:14;94602.94;;;18.92;85.16
12775;BME280;6451;42.630;23.382;2023-05-08T04:46:41;94582.50;;;19.14;84.82
12775;BME280;6451;42.630;23.382;2023-05-08T04:49:08;94568.75;;;18.93;85.00
12775;BME280;6451;42.630;23.382;2023-05-08T04:51:35;94580.09;;;19.37;83.60
12775;BME280;6451;42.630;23.382;2023-05-08T04:54:02;94588.38;;;19.23;82.54
12775;BME280;6451;42.630;23.382;2023-05-08T04:56:30;94593.50;;;19.17;82.82
12775;BME280;6451;42.630;23.382;2023-05-08T04:58:57;94591.06;;;19.52;82.30
12775;BME280;6451;42.630;23.382;2023-05-08T05:01:25;94566.34;;;19.37;82.53
12775;BME280;6451;42.630;23.382;2023-05-08T05:03:52;94585.97;;;19.47;83.23
12775;BME280;6451;42.630;23.382;2023-05-08T05:06:19;94582.47;;;19.35;82.85
12775;BME280;6451;42.630;23.382;2023-05-08T05:08:46;94584.03;;;19.36;81.82
12775;BME280;6451;42.630;23.382;2023-05-08T05:11:12;94566.72;;;19.39;82.04
12775;BME280;6451;42.630;23.382;2023-05-08T05:13:39;94587.94;;;19.60;82.50
12775;BME280;6451;42.630;23.382;2023-05-08T05:16:06;94586.69;;;19.76;80.87
12775;BME280;6451;42.630;23.382;2023-05-08T05:18:35;94585.97;;;19.47;82.91
12775;BME280;6451;42.630;23.382;2023-05-08T05:21:01;94569.53;;;19.18;84.21
12775;BME280;6451;42.630;23.382;2023-05-08T05:23:28;94579.31;;;19.30;83.28
12775;BME280;6451;42.630;23.382;2023-05-08T05:25:56;94581.28;;;19.40;81.97
12775;BME280;6451;42.630;23.382;2023-05-08T05:28:23;94579.97;;;19.84;80.77
12775;BME280;6451;42.630;23.382;2023-05-08T05:30:50;94568.91;;;20.02;79.50
12775;BME280;6451;42.630;23.382;2023-05-08T05:33:17;94580.53;;;20.34;78.28
12775;BME280;6451;42.630;23.382;2023-05-08T05:35:45;94571.50;;;20.34;76.82
12775;BME280;6451;42.630;23.382;2023-05-08T05:38:13;94562.66;;;19.94;78.85
12775;BME280;6451;42.630;23.382;2023-05-08T05:40:40;94570.75;;;20.26;78.18
12775;BME280;6451;42.630;23.382;2023-05-08T05:43:07;94572.50;;;20.65;76.62
12775;BME280;6451;42.630;23.382;2023-05-08T05:45:34;94578.47;;;20.52;75.43
12775;BME280;6451;42.630;23.382;2023-05-08T05:48:01;94582.09;;;20.35;77.15
12775;BME280;6451;42.630;23.382;2023-05-08T05:50:28;94580.50;;;20.41;76.75
12775;BME280;6451;42.630;23.382;2023-05-08T05:52:57;94557.25;;;20.39;76.85
12775;BME280;6451;42.630;23.382;2023-05-08T05:55:24;94587.81;;;20.73;75.80
12775;BME280;6451;42.630;23.382;2023-05-08T05:57:51;94579.50;;;21.25;73.19
12775;BME280;6451;42.630;23.382;2023-05-08T06:00:18;94571.22;;;21.21;72.68
12775;BME280;6451;42.630;23.382;2023-05-08T06:02:46;94516.50;;;21.13;72.16
12775;BME280;6451;42.630;23.382;2023-05-08T06:05:13;94565.69;;;21.25;72.75
12775;BME280;6451;42.630;23.382;2023-05-08T06:07:40;94564.88;;;21.28;71.90
12775;BME280;6451;42.630;23.382;2023-05-08T06:10:09;94562.97;;;21.62;71.14
12775;BME280;6451;42.630;23.382;2023-05-08T06:12:36;94558.84;;;21.78;69.82
12775;BME280;6451;42.630;23.382;2023-05-08T06:15:03;94565.75;;;21.59;71.32
12775;BME280;6451;42.630;23.382;2023-05-08T06:17:30;94558.75;;;21.85;70.10
12775;BME280;6451;42.630;23.382;2023-05-08T06:19:57;94571.91;;;21.74;69.74
12775;BME280;6451;42.630;23.382;2023-05-08T06:22:24;94562.09;;;22.03;68.25
12775;BME280;6451;42.630;23.382;2023-05-08T06:24:51;94547.50;;;21.99;66.69
12775;BME280;6451;42.630;23.382;2023-05-08T06:27:20;94559.75;;;22.32;66.17
12775;BME280;6451;42.630;23.382;2023-05-08T06:29:48;94526.84;;;22.41;64.99
12775;BME280;6451;42.630;23.382;2023-05-08T06:32:17;94555.78;;;22.60;63.84
12775;BME280;6451;42.630;23.382;2023-05-08T06:34:44;94557.53;;;22.20;66.02
12775;BME280;6451;42.630;23.382;2023-05-08T06:37:11;94555.56;;;22.20;65.90
12775;BME280;6451;42.630;23.382;2023-05-08T06:39:38;94543.31;;;22.48;62.59
12775;BME280;6451;42.630;23.382;2023-05-08T06:42:05;94548.53;;;22.43;63.61
12775;BME280;6451;42.630;23.382;2023-05-08T06:44:33;94550.56;;;22.66;63.61
12775;BME280;6451;42.630;23.382;2023-05-08T06:47:00;94554.97;;;22.63;62.97
12775;BME280;6451;42.630;23.382;2023-05-08T06:49:27;94552.88;;;22.13;66.06
12775;BME280;6451;42.630;23.382;2023-05-08T06:51:54;94562.97;;;22.54;65.40
12775;BME280;6451;42.630;23.382;2023-05-08T06:54:22;94558.69;;;23.03;62.67
12775;BME280;6451;42.630;23.382;2023-05-08T06:56:48;94555.53;;;22.78;62.75
12775;BME280;6451;42.630;23.382;2023-05-08T06:59:15;94559.25;;;23.18;60.41
12775;BME280;6451;42.630;23.382;2023-05-08T07:01:44;94564.81;;;23.15;60.72
12775;BME280;6451;42.630;23.382;2023-05-08T07:04:10;94540.34;;;22.90;58.70
12775;BME280;6451;42.630;23.382;2023-05-08T07:06:38;94567.84;;;23.24;59.00
12775;BME280;6451;42.630;23.382;2023-05-08T07:09:05;94571.59;;;23.57;59.34
12775;BME280;6451;42.630;23.382;2023-05-08T07:11:31;94566.16;;;22.80;61.43
12775;BME280;6451;42.630;23.382;2023-05-08T07:13:58;94563.50;;;23.46;60.01
12775;BME280;6451;42.630;23.382;2023-05-08T07:16:25;94561.84;;;23.92;58.18
12775;BME280;6451;42.630;23.382;2023-05-08T07:18:53;94554.53;;;23.82;58.24
12775;BME280;6451;42.630;23.382;2023-05-08T07:21:20;94576.97;;;24.07;59.03
12775;BME280;6451;42.630;23.382;2023-05-08T07:23:47;94572.28;;;23.84;58.90
12775;BME280;6451;42.630;23.382;2023-05-08T07:26:16;94575.47;;;24.23;58.80
12775;BME280;6451;42.630;23.382;2023-05-08T07:28:44;94569.06;;;23.66;57.94
12775;BME280;6451;42.630;23.382;2023-05-08T07:31:10;94562.84;;;23.62;57.35
12775;BME280;6451;42.630;23.382;2023-05-08T07:33:37;94569.50;;;23.84;56.98
12775;BME280;6451;42.630;23.382;2023-05-08T07:36:06;94560.63;;;24.33;56.86
12775;BME280;6451;42.630;23.382;2023-05-08T07:38:33;94559.81;;;23.29;59.64
12775;BME280;6451;42.630;23.382;2023-05-08T07:41:01;94567.31;;;23.76;57.96
12775;BME280;6451;42.630;23.382;2023-05-08T07:43:29;94572.34;;;23.38;58.70
12775;BME280;6451;42.630;23.382;2023-05-08T07:45:57;94578.69;;;24.01;57.73
12775;BME280;6451;42.630;23.382;2023-05-08T07:48:25;94579.31;;;23.22;59.43
12775;BME280;6451;42.630;23.382;2023-05-08T07:50:52;94579.06;;;22.90;59.65
12775;BME280;6451;42.630;23.382;2023-05-08T07:53:20;94570.50;;;23.31;59.56
12775;BME280;6451;42.630;23.382;2023-05-08T07:55:47;94572.19;;;23.25;58.30
12775;BME280;6451;42.630;23.382;2023-05-08T07:58:14;94565.75;;;23.32;57.79
12775;BME280;6451;42.630;23.382;2023-05-08T08:00:41;94574.13;;;24.31;55.72
12775;BME280;6451;42.630;23.382;2023-05-08T08:03:09;94573.59;;;23.56;56.67
12775;BME280;6451;42.630;23.382;2023-05-08T08:05:36;94567.44;;;23.69;56.65
12775;BME280;6451;42.630;23.382;2023-05-08T08:08:04;94590.78;;;23.01;59.00
12775;BME280;6451;42.630;23.382;2023-05-08T08:10:33;94587.63;;;23.22;58.28
12775;BME280;6451;42.630;23.382;2023-05-08T08:13:00;94582.38;;;23.51;57.38
12775;BME280;6451;42.630;23.382;2023-05-08T08:15:27;94563.47;;;23.70;56.27
12775;BME280;6451;42.630;23.382;2023-05-08T08:17:54;94580.75;;;23.77;56.57
12775;BME280;6451;42.630;23.382;2023-05-08T08:20:21;94589.63;;;24.48;55.63
12775;BME280;6451;42.630;23.382;2023-05-08T08:22:48;94579.03;;;24.43;54.85
12775;BME280;6451;42.630;23.382;2023-05-08T08:25:14;94578.22;;;24.62;53.68
12775;BME280;6451;42.630;23.382;2023-05-08T08:27:43;94570.72;;;24.43;54.59
12775;BME280;6451;42.630;23.382;2023-05-08T08:30:10;94582.13;;;24.65;53.75
12775;BME280;6451;42.630;23.382;2023-05-08T08:32:37;94560.66;;;24.29;53.54
12775;BME280;6451;42.630;23.382;2023-05-08T08:35:05;94554.69;;;24.51;53.37
12775;BME280;6451;42.630;23.382;2023-05-08T08:37:32;94553.03;;;25.06;51.84
12775;BME280;6451;42.630;23.382;2023-05-08T08:39:59;94573.31;;;25.03;52.71
12775;BME280;6451;42.630;23.382;2023-05-08T08:42:26;94579.69;;;23.91;54.49
12775;BME280;6451;42.630;23.382;2023-05-08T08:44:55;94565.31;;;23.96;54.49
12775;BME280;6451;42.630;23.382;2023-05-08T08:47:26;94563.09;;;24.47;53.43
12775;BME280;6451;42.630;23.382;2023-05-08T08:49:54;94559.09;;;24.28;54.02
12775;BME280;6451;42.630;23.382;2023-05-08T08:52:29;94555.94;;;24.66;53.26
12775;BME280;6451;42.630;23.382;2023-05-08T08:54:59;94555.84;;;24.70;53.45
12775;BME280;6451;42.630;23.382;2023-05-08T08:57:31;94545.97;;;25.34;52.46
12775;BME280;6451;42.630;23.382;2023-05-08T09:00:01;94551.00;;;25.22;52.79
12775;BME280;6451;42.630;23.382;2023-05-08T09:02:30;94556.06;;;25.11;53.21
12775;BME280;6451;42.630;23.382;2023-05-08T09:04:57;94539.09;;;24.73;54.37
12775;BME280;6451;42.630;23.382;2023-05-08T09:07:25;94530.50;;;24.67;54.65
12775;BME280;6451;42.630;23.382;2023-05-08T09:09:54;94536.09;;;25.78;53.67
12775;BME280;6451;42.630;23.382;2023-05-08T09:12:21;94531.81;;;25.28;54.42
12775;BME280;6451;42.630;23.382;2023-05-08T09:14:49;94534.03;;;25.95;53.61
12775;BME280;6451;42.630;23.382;2023-05-08T09:17:18;94525.69;;;25.95;53.24
12775;BME280;6451;42.630;23.382;2023-05-08T09:19:47;94536.19;;;25.58;53.56
12775;BME280;6451;42.630;23.382;2023-05-08T09:22:15;94503.69;;;25.71;53.68
12775;BME280;6451;42.630;23.382;2023-05-08T09:24:56;94515.75;;;25.36;55.22
12775;BME280;6451;42.630;23.382;2023-05-08T09:27:24;94513.78;;;25.20;55.36
12775;BME280;6451;42.630;23.382;2023-05-08T09:29:58;94514.47;;;24.75;55.83
12775;BME280;6451;42.630;23.382;2023-05-08T09:32:28;94515.00;;;24.86;56.64
12775;BME280;6451;42.630;23.382;2023-05-08T09:34:54;94506.31;;;25.33;55.80
12775;BME280;6451;42.630;23.382;2023-05-08T09:37:21;94497.63;;;24.99;56.38
12775;BME280;6451;42.630;23.382;2023-05-08T09:39:48;94492.38;;;25.04;56.35
12775;BME280;6451;42.630;23.382;2023-05-08T09:42:15;94476.00;;;25.39;56.13
12775;BME280;6451;42.630;23.382;2023-05-08T09:44:44;94497.63;;;25.76;55.61
12775;BME280;6451;42.630;23.382;2023-05-08T09:47:13;94499.66;;;25.43;55.57
12775;BME280;6451;42.630;23.382;2023-05-08T09:49:55;94494.22;;;26.11;53.80
12775;BME280;6451;42.630;23.382;2023-05-08T09:52:23;94506.63;;;25.81;54.09
12775;BME280;6451;42.630;23.382;2023-05-08T09:54:55;94504.50;;;26.52;52.49
12775;BME280;6451;42.630;23.382;2023-05-08T09:57:23;94516.66;;;27.43;51.08
12775;BME280;6451;42.630;23.382;2023-05-08T09:59:50;94513.44;;;26.47;51.80
12775;BME280;6451;42.630;23.382;2023-05-08T10:02:17;94523.94;;;26.14;51.93
12775;BME280;6451;42.630;23.382;2023-05-08T10:04:46;94510.22;;;25.94;52.39
12775;BME280;6451;42.630;23.382;2023-05-08T10:07:14;94519.91;;;26.15;52.73
12775;BME280;6451;42.630;23.382;2023-05-08T10:09:56;94512.88;;;26.77;51.05
12775;BME280;6451;42.630;23.382;2023-05-08T10:12:25;94497.41;;;26.76;50.32
12775;BME280;6451;42.630;23.382;2023-05-08T10:14:52;94506.94;;;27.13;50.91
12775;BME280;6451;42.630;23.382;2023-05-08T10:17:24;94479.91;;;27.58;50.12
12775;BME280;6451;42.630;23.382;2023-05-08T10:19:56;94522.53;;;25.80;53.17
12775;BME280;6451;42.630;23.382;2023-05-08T10:22:26;94483.75;;;26.15;53.08
12775;BME280;6451;42.630;23.382;2023-05-08T10:24:56;94466.97;;;26.82;50.74
12775;BME280;6451;42.630;23.382;2023-05-08T10:27:34;94497.59;;;27.42;51.03
12775;BME280;6451;42.630;23.382;2023-05-08T10:30:04;94491.28;;;27.63;50.04
12775;BME280;6451;42.630;23.382;2023-05-08T10:32:37;94485.34;;;26.92;51.53
12775;BME280;6451;42.630;23.382;2023-05-08T10:35:08;94476.13;;;26.70;52.41
12775;BME280;6451;42.630;23.382;2023-05-08T10:37:37;94469.50;;;27.02;51.04
12775;BME280;6451;42.630;23.382;2023-05-08T10:40:07;94464.50;;;27.09;50.83
12775;BME280;6451;42.630;23.382;2023-05-08T10:42:37;94492.84;;;26.70;51.50
12775;BME280;6451;42.630;23.382;2023-05-08T10:45:06;94484.22;;;27.37;50.80
12775;BME280;6451;42.630;23.382;2023-05-08T10:47:54;94469.19;;;27.00;50.93
12775;BME280;6451;42.630;23.382;2023-05-08T10:50:38;94480.00;;;26.09;52.90
12775;BME280;6451;42.630;23.382;2023-05-08T10:53:15;94447.25;;;25.87;53.12
12775;BME280;6451;42.630;23.382;2023-05-08T10:55:45;94471.75;;;25.92;53.74
12775;BME280;6451;42.630;23.382;2023-05-08T10:58:27;94458.06;;;26.87;51.81
12775;BME280;6451;42.630;23.382;2023-05-08T11:01:19;94461.03;;;27.05;51.22
12775;BME280;6451;42.630;23.382;2023-05-08T11:03:47;94461.25;;;26.98;51.70
12775;BME280;6451;42.630;23.382;2023-05-08T11:06:16;94464.13;;;27.55;51.18
12775;BME280;6451;42.630;23.382;2023-05-08T11:08:49;94459.19;;;27.81;50.28
12775;BME280;6451;42.630;23.382;2023-05-08T11:11:27;94460.94;;;27.87;49.49
12775;BME280;6451;42.630;23.382;2023-05-08T11:13:58;94455.22;;;27.91;49.52
12775;BME280;6451;42.630;23.382;2023-05-08T11:19:30;94443.84;;;26.59;52.12
12775;BME280;6451;42.630;23.382;2023-05-08T11:22:25;94458.28;;;26.03;52.45
12775;BME280;6451;42.630;23.382;2023-05-08T11:25:05;94420.81;;;26.08;52.69
12775;BME280;6451;42.630;23.382;2023-05-08T11:27:38;94441.19;;;26.56;52.36
12775;BME280;6451;42.630;23.382;2023-05-08T11:30:33;94439.50;;;26.33;53.42
12775;BME280;6451;42.630;23.382;2023-05-08T11:33:18;94430.44;;;25.78;53.94
12775;BME280;6451;42.630;23.382;2023-05-08T11:35:48;94392.78;;;26.15;53.10
12775;BME280;6451;42.630;23.382;2023-05-08T11:38:17;94423.25;;;26.19;53.59
12775;BME280;6451;42.630;23.382;2023-05-08T11:40:46;94427.16;;;25.54;54.80
12775;BME280;6451;42.630;23.382;2023-05-08T11:43:43;94411.84;;;25.33;55.31
12775;BME280;6451;42.630;23.382;2023-05-08T11:46:16;94405.88;;;26.15;54.05
12775;BME280;6451;42.630;23.382;2023-05-08T11:48:43;94395.88;;;26.04;53.71
12775;BME280;6451;42.630;23.382;2023-05-08T11:51:10;94390.84;;;26.50;52.61
12775;BME280;6451;42.630;23.382;2023-05-08T11:53:38;94380.50;;;26.51;52.85
12775;BME280;6451;42.630;23.382;2023-05-08T11:56:07;94396.44;;;26.25;52.75
12775;BME280;6451;42.630;23.382;2023-05-08T11:58:33;94387.06;;;26.57;51.89
12775;BME280;6451;42.630;23.382;2023-05-08T12:01:01;94375.25;;;27.00;51.72
12775;BME280;6451;42.630;23.382;2023-05-08T12:03:28;94366.50;;;27.24;51.69
12775;BME280;6451;42.630;23.382;2023-05-08T12:05:57;94372.44;;;27.35;52.10
12775;BME280;6451;42.630;23.382;2023-05-08T12:08:24;94361.94;;;27.39;50.46
12775;BME280;6451;42.630;23.382;2023-05-08T12:10:53;94360.78;;;27.49;49.57
12775;BME280;6451;42.630;23.382;2023-05-08T12:13:23;94372.19;;;27.95;48.54
12775;BME280;6451;42.630;23.382;2023-05-08T12:15:52;94369.78;;;28.46;47.52
12775;BME280;6451;42.630;23.382;2023-05-08T12:18:20;94366.59;;;28.85;46.88
12775;BME280;6451;42.630;23.382;2023-05-08T12:20:50;94352.59;;;28.75;46.71
12775;BME280;6451;42.630;23.382;2023-05-08T12:23:18;94346.78;;;28.33;46.53
12775;BME280;6451;42.630;23.382;2023-05-08T12:25:45;94367.00;;;28.46;46.80
12775;BME280;6451;42.630;23.382;2023-05-08T12:28:12;94354.22;;;28.36;46.90
12775;BME280;6451;42.630;23.382;2023-05-08T12:30:41;94356.13;;;28.48;47.97
12775;BME280;6451;42.630;23.382;2023-05-08T12:33:08;94358.72;;;28.34;47.60
12775;BME280;6451;42.630;23.382;2023-05-08T12:35:37;94358.47;;;28.50;46.55
12775;BME280;6451;42.630;23.382;2023-05-08T12:38:06;94341.56;;;28.04;45.47
12775;BME280;6451;42.630;23.382;2023-05-08T12:40:34;94332.75;;;27.75;46.02
12775;BME280;6451;42.630;23.382;2023-05-08T12:43:08;94352.03;;;27.16;46.58
12775;BME280;6451;42.630;23.382;2023-05-08T12:45:36;94349.56;;;27.40;46.45
12775;BME280;6451;42.630;23.382;2023-05-08T12:48:06;94328.34;;;27.64;46.51
12775;BME280;6451;42.630;23.382;2023-05-08T12:50:34;94343.63;;;27.07;53.11
12775;BME280;6451;42.630;23.382;2023-05-08T12:53:02;94357.72;;;26.05;57.90
12775;BME280;6451;42.630;23.382;2023-05-08T12:55:31;94353.72;;;25.26;55.99
12775;BME280;6451;42.630;23.382;2023-05-08T12:58:00;94321.59;;;25.92;57.19
12775;BME280;6451;42.630;23.382;2023-05-08T13:00:38;94328.47;;;26.95;59.18
12775;BME280;6451;42.630;23.382;2023-05-08T13:03:08;94314.53;;;27.08;62.41
12775;BME280;6451;42.630;23.382;2023-05-08T13:05:37;94336.88;;;27.39;61.85
12775;BME280;6451;42.630;23.382;2023-05-08T13:08:07;94327.59;;;27.42;60.98
12775;BME280;6451;42.630;23.382;2023-05-08T13:10:48;94325.56;;;26.77;62.50
12775;BME280;6451;42.630;23.382;2023-05-08T13:13:17;94323.31;;;27.28;62.04
12775;BME280;6451;42.630;23.382;2023-05-08T13:15:44;94328.78;;;27.63;58.38
12775;BME280;6451;42.630;23.382;2023-05-08T13:18:13;94308.03;;;26.54;57.10
12775;BME280;6451;42.630;23.382;2023-05-08T13:20:41;94327.09;;;26.43;55.44